sensor_id;sensor_type;location;lat;lon;timestamp;P1;durP1;ratioP1;P2;durP2;ratioP2
72920;SDS011;61064;51.654;5.476;2023-08-01T00:02:17;14.07;;;5.10;;
72920;SDS011;61064;51.654;5.476;2023-08-01T00:04:42;12.37;;;4.57;;
72920;SDS011;61064;51.654;5.476;2023-08-01T00:07:08;12.10;;;5.40;;
72920;SDS011;61064;51.654;5.476;2023-08-01T00:09:33;11.50;;;4.77;;
72920;SDS011;61064;51.654;5.476;2023-08-01T00:11:58;10.63;;;4.30;;
72920;SDS011;61064;51.654;5.476;2023-08-01T00:14:24;10.67;;;4.70;;
72920;SDS011;61064;51.654;5.476;2023-08-01T00:16:50;12.40;;;4.43;;
72920;SDS011;61064;51.654;5.476;2023-08-01T00:19:16;10.48;;;4.13;;
72920;SDS011;61064;51.654;5.476;2023-08-01T00:21:41;9.50;;;3.93;;
72920;SDS011;61064;51.654;5.476;2023-08-01T00:24:06;9.83;;;3.90;;
72920;SDS011;61064;51.654;5.476;2023-08-01T00:26:33;9.18;;;3.70;;
72920;SDS011;61064;51.654;5.476;2023-08-01T00:28:59;11.30;;;4.18;;
72920;SDS011;61064;51.654;5.476;2023-08-01T00:31:24;11.73;;;4.27;;
72920;SDS011;61064;51.654;5.476;2023-08-01T00:33:49;12.50;;;4.30;;
72920;SDS011;61064;51.654;5.476;2023-08-01T00:36:15;10.38;;;4.07;;
72920;SDS011;61064;51.654;5.476;2023-08-01T00:38:40;10.70;;;4.17;;
72920;SDS011;61064;51.654;5.476;2023-08-01T00:41:08;9.93;;;4.05;;
72920;SDS011;61064;51.654;5.476;2023-08-01T00:43:34;11.33;;;3.93;;
72920;SDS011;61064;51.654;5.476;2023-08-01T00:45:59;12.00;;;3.93;;
72920;SDS011;61064;51.654;5.476;2023-08-01T00:48:28;10.93;;;3.72;;
72920;SDS011;61064;51.654;5.476;2023-08-01T00:50:54;10.55;;;3.60;;
72920;SDS011;61064;51.654;5.476;2023-08-01T00:53:21;10.20;;;3.90;;
72920;SDS011;61064;51.654;5.476;2023-08-01T00:55:47;15.53;;;3.90;;
72920;SDS011;61064;51.654;5.476;2023-08-01T00:58:13;10.48;;;4.05;;
72920;SDS011;61064;51.654;5.476;2023-08-01T01:00:38;9.40;;;3.30;;
72920;SDS011;61064;51.654;5.476;2023-08-01T01:03:04;8.75;;;3.60;;
72920;SDS011;61064;51.654;5.476;2023-08-01T01:05:31;10.43;;;3.30;;
72920;SDS011;61064;51.654;5.476;2023-08-01T01:08:02;9.60;;;2.95;;
72920;SDS011;61064;51.654;5.476;2023-08-01T01:10:28;11.32;;;3.63;;
72920;SDS011;61064;51.654;5.476;2023-08-01T01:12:54;10.40;;;3.10;;
72920;SDS011;61064;51.654;5.476;2023-08-01T01:15:20;8.45;;;3.15;;
72920;SDS011;61064;51.654;5.476;2023-08-01T01:17:45;10.97;;;3.20;;
72920;SDS011;61064;51.654;5.476;2023-08-01T01:20:11;10.43;;;3.00;;
72920;SDS011;61064;51.654;5.476;2023-08-01T01:22:36;9.80;;;3.00;;
72920;SDS011;61064;51.654;5.476;2023-08-01T01:25:04;9.40;;;3.30;;
72920;SDS011;61064;51.654;5.476;2023-08-01T01:27:32;11.77;;;3.00;;
72920;SDS011;61064;51.654;5.476;2023-08-01T01:29:58;9.75;;;3.15;;
72920;SDS011;61064;51.654;5.476;2023-08-01T01:32:25;9.73;;;3.03;;
72920;SDS011;61064;51.654;5.476;2023-08-01T01:34:52;10.43;;;2.90;;
72920;SDS011;61064;51.654;5.476;2023-08-01T01:37:17;9.50;;;2.80;;
72920;SDS011;61064;51.654;5.476;2023-08-01T01:39:43;11.90;;;2.90;;
72920;SDS011;61064;51.654;5.476;2023-08-01T01:42:08;9.43;;;2.90;;
72920;SDS011;61064;51.654;5.476;2023-08-01T01:44:33;12.85;;;2.80;;
72920;SDS011;61064;51.654;5.476;2023-08-01T01:46:59;10.67;;;3.80;;
72920;SDS011;61064;51.654;5.476;2023-08-01T01:49:24;12.33;;;3.83;;
72920;SDS011;61064;51.654;5.476;2023-08-01T01:51:51;11.48;;;3.83;;
72920;SDS011;61064;51.654;5.476;2023-08-01T01:54:16;11.93;;;3.60;;
72920;SDS011;61064;51.654;5.476;2023-08-01T01:56:41;12.93;;;4.43;;
72920;SDS011;61064;51.654;5.476;2023-08-01T01:59:07;11.02;;;3.80;;
72920;SDS011;61064;51.654;5.476;2023-08-01T02:01:32;12.17;;;3.87;;
72920;SDS011;61064;51.654;5.476;2023-08-01T02:03:58;11.30;;;3.73;;
72920;SDS011;61064;51.654;5.476;2023-08-01T02:06:23;14.77;;;4.00;;
72920;SDS011;61064;51.654;5.476;2023-08-01T02:08:48;13.17;;;3.80;;
72920;SDS011;61064;51.654;5.476;2023-08-01T02:11:14;15.67;;;4.23;;
72920;SDS011;61064;51.654;5.476;2023-08-01T02:13:40;12.40;;;4.25;;
72920;SDS011;61064;51.654;5.476;2023-08-01T02:16:06;15.80;;;4.47;;
72920;SDS011;61064;51.654;5.476;2023-08-01T02:18:31;14.32;;;3.97;;
72920;SDS011;61064;51.654;5.476;2023-08-01T02:20:56;16.07;;;4.20;;
72920;SDS011;61064;51.654;5.476;2023-08-01T02:23:22;14.90;;;4.03;;
72920;SDS011;61064;51.654;5.476;2023-08-01T02:25:47;12.57;;;4.23;;
72920;SDS011;61064;51.654;5.476;2023-08-01T02:28:12;17.33;;;4.70;;
72920;SDS011;61064;51.654;5.476;2023-08-01T02:30:38;13.67;;;4.47;;
72920;SDS011;61064;51.654;5.476;2023-08-01T02:33:03;12.45;;;4.30;;
72920;SDS011;61064;51.654;5.476;2023-08-01T02:35:29;10.73;;;4.07;;
72920;SDS011;61064;51.654;5.476;2023-08-01T02:37:54;11.73;;;5.00;;
72920;SDS011;61064;51.654;5.476;2023-08-01T02:40:20;14.95;;;4.13;;
72920;SDS011;61064;51.654;5.476;2023-08-01T02:42:46;13.63;;;4.27;;
72920;SDS011;61064;51.654;5.476;2023-08-01T02:45:11;14.23;;;4.40;;
72920;SDS011;61064;51.654;5.476;2023-08-01T02:47:37;15.80;;;4.60;;
72920;SDS011;61064;51.654;5.476;2023-08-01T02:50:02;17.43;;;4.60;;
72920;SDS011;61064;51.654;5.476;2023-08-01T02:52:28;15.43;;;4.97;;
72920;SDS011;61064;51.654;5.476;2023-08-01T02:54:53;17.70;;;4.55;;
72920;SDS011;61064;51.654;5.476;2023-08-01T02:57:19;15.03;;;4.90;;
72920;SDS011;61064;51.654;5.476;2023-08-01T02:59:44;15.43;;;4.90;;
72920;SDS011;61064;51.654;5.476;2023-08-01T03:02:13;17.93;;;4.80;;
72920;SDS011;61064;51.654;5.476;2023-08-01T03:04:38;15.05;;;4.65;;
72920;SDS011;61064;51.654;5.476;2023-08-01T03:07:03;18.47;;;5.00;;
72920;SDS011;61064;51.654;5.476;2023-08-01T03:09:29;14.00;;;4.80;;
72920;SDS011;61064;51.654;5.476;2023-08-01T03:11:54;17.33;;;5.20;;
72920;SDS011;61064;51.654;5.476;2023-08-01T03:14:20;18.27;;;6.03;;
72920;SDS011;61064;51.654;5.476;2023-08-01T03:16:45;14.63;;;5.23;;
72920;SDS011;61064;51.654;5.476;2023-08-01T03:19:10;17.60;;;5.67;;
72920;SDS011;61064;51.654;5.476;2023-08-01T03:21:36;18.20;;;5.97;;
72920;SDS011;61064;51.654;5.476;2023-08-01T03:24:02;15.15;;;5.97;;
72920;SDS011;61064;51.654;5.476;2023-08-01T03:26:28;20.10;;;6.03;;
72920;SDS011;61064;51.654;5.476;2023-08-01T03:28:54;19.48;;;6.88;;
72920;SDS011;61064;51.654;5.476;2023-08-01T03:31:21;18.00;;;6.68;;
72920;SDS011;61064;51.654;5.476;2023-08-01T03:33:47;19.50;;;6.93;;
72920;SDS011;61064;51.654;5.476;2023-08-01T03:36:12;17.67;;;6.70;;
72920;SDS011;61064;51.654;5.476;2023-08-01T03:38:38;20.40;;;7.45;;
72920;SDS011;61064;51.654;5.476;2023-08-01T03:41:04;25.47;;;7.77;;
72920;SDS011;61064;51.654;5.476;2023-08-01T03:43:29;23.90;;;8.47;;
72920;SDS011;61064;51.654;5.476;2023-08-01T03:45:55;21.10;;;7.83;;
72920;SDS011;61064;51.654;5.476;2023-08-01T03:48:20;24.10;;;8.95;;
72920;SDS011;61064;51.654;5.476;2023-08-01T03:50:45;25.07;;;9.00;;
72920;SDS011;61064;51.654;5.476;2023-08-01T03:53:11;19.60;;;9.07;;
72920;SDS011;61064;51.654;5.476;2023-08-01T03:55:36;26.27;;;10.73;;
72920;SDS011;61064;51.654;5.476;2023-08-01T03:58:02;25.23;;;9.73;;
72920;SDS011;61064;51.654;5.476;2023-08-01T04:00:27;20.83;;;9.50;;
72920;SDS011;61064;51.654;5.476;2023-08-01T04:02:57;24.63;;;9.25;;
72920;SDS011;61064;51.654;5.476;2023-08-01T04:05:23;25.13;;;9.97;;
72920;SDS011;61064;51.654;5.476;2023-08-01T04:07:49;20.73;;;9.93;;
72920;SDS011;61064;51.654;5.476;2023-08-01T04:10:14;25.42;;;10.32;;
72920;SDS011;61064;51.654;5.476;2023-08-01T04:12:40;24.33;;;10.57;;
72920;SDS011;61064;51.654;5.476;2023-08-01T04:15:07;24.67;;;11.05;;
72920;SDS011;61064;51.654;5.476;2023-08-01T04:17:33;26.57;;;10.90;;
72920;SDS011;61064;51.654;5.476;2023-08-01T04:19:58;31.42;;;10.65;;
72920;SDS011;61064;51.654;5.476;2023-08-01T04:22:24;25.63;;;10.83;;
72920;SDS011;61064;51.654;5.476;2023-08-01T04:24:49;22.83;;;10.33;;
72920;SDS011;61064;51.654;5.476;2023-08-01T04:27:15;24.92;;;9.90;;
72920;SDS011;61064;51.654;5.476;2023-08-01T04:29:41;24.67;;;9.90;;
72920;SDS011;61064;51.654;5.476;2023-08-01T04:32:06;22.57;;;9.47;;
72920;SDS011;61064;51.654;5.476;2023-08-01T04:34:32;23.35;;;10.20;;
72920;SDS011;61064;51.654;5.476;2023-08-01T04:36:58;27.30;;;10.30;;
72920;SDS011;61064;51.654;5.476;2023-08-01T04:39:23;31.08;;;10.63;;
72920;SDS011;61064;51.654;5.476;2023-08-01T04:41:48;23.27;;;10.07;;
72920;SDS011;61064;51.654;5.476;2023-08-01T04:44:15;25.90;;;10.05;;
72920;SDS011;61064;51.654;5.476;2023-08-01T04:46:40;25.13;;;9.63;;
72920;SDS011;61064;51.654;5.476;2023-08-01T04:49:06;23.80;;;9.75;;
72920;SDS011;61064;51.654;5.476;2023-08-01T04:51:31;21.17;;;10.37;;
72920;SDS011;61064;51.654;5.476;2023-08-01T04:53:56;25.73;;;9.90;;
72920;SDS011;61064;51.654;5.476;2023-08-01T04:56:22;27.27;;;9.47;;
72920;SDS011;61064;51.654;5.476;2023-08-01T04:58:47;22.20;;;9.02;;
72920;SDS011;61064;51.654;5.476;2023-08-01T05:01:13;20.93;;;9.57;;
72920;SDS011;61064;51.654;5.476;2023-08-01T05:03:38;22.43;;;10.40;;
72920;SDS011;61064;51.654;5.476;2023-08-01T05:06:04;21.67;;;9.47;;
72920;SDS011;61064;51.654;5.476;2023-08-01T05:08:29;22.70;;;9.10;;
72920;SDS011;61064;51.654;5.476;2023-08-01T05:10:54;18.97;;;8.27;;
72920;SDS011;61064;51.654;5.476;2023-08-01T05:13:20;18.43;;;8.70;;
72920;SDS011;61064;51.654;5.476;2023-08-01T05:15:45;20.70;;;8.27;;
72920;SDS011;61064;51.654;5.476;2023-08-01T05:18:15;20.98;;;8.27;;
72920;SDS011;61064;51.654;5.476;2023-08-01T05:20:41;17.97;;;8.00;;
72920;SDS011;61064;51.654;5.476;2023-08-01T05:23:07;23.35;;;9.10;;
72920;SDS011;61064;51.654;5.476;2023-08-01T05:25:32;20.37;;;8.77;;
72920;SDS011;61064;51.654;5.476;2023-08-01T05:27:57;19.50;;;8.43;;
72920;SDS011;61064;51.654;5.476;2023-08-01T05:30:24;19.88;;;8.15;;
72920;SDS011;61064;51.654;5.476;2023-08-01T05:32:49;20.17;;;8.17;;
72920;SDS011;61064;51.654;5.476;2023-08-01T05:35:15;19.75;;;8.20;;
72920;SDS011;61064;51.654;5.476;2023-08-01T05:37:40;19.73;;;7.73;;
72920;SDS011;61064;51.654;5.476;2023-08-01T05:40:06;22.27;;;7.17;;
72920;SDS011;61064;51.654;5.476;2023-08-01T05:42:32;19.38;;;6.97;;
72920;SDS011;61064;51.654;5.476;2023-08-01T05:44:58;17.50;;;7.00;;
72920;SDS011;61064;51.654;5.476;2023-08-01T05:47:23;19.67;;;6.57;;
72920;SDS011;61064;51.654;5.476;2023-08-01T05:49:48;17.40;;;6.63;;
72920;SDS011;61064;51.654;5.476;2023-08-01T05:52:14;16.47;;;6.57;;
72920;SDS011;61064;51.654;5.476;2023-08-01T05:54:39;18.50;;;7.28;;
72920;SDS011;61064;51.654;5.476;2023-08-01T05:57:05;16.83;;;6.13;;
72920;SDS011;61064;51.654;5.476;2023-08-01T05:59:31;14.05;;;6.45;;
72920;SDS011;61064;51.654;5.476;2023-08-01T06:01:56;20.13;;;7.30;;
72920;SDS011;61064;51.654;5.476;2023-08-01T06:04:22;18.80;;;7.00;;
72920;SDS011;61064;51.654;5.476;2023-08-01T06:06:47;21.00;;;7.73;;
72920;SDS011;61064;51.654;5.476;2023-08-01T06:09:13;20.75;;;7.18;;
72920;SDS011;61064;51.654;5.476;2023-08-01T06:11:38;19.90;;;7.40;;
72920;SDS011;61064;51.654;5.476;2023-08-01T06:14:03;19.43;;;7.30;;
72920;SDS011;61064;51.654;5.476;2023-08-01T06:16:29;22.03;;;7.23;;
72920;SDS011;61064;51.654;5.476;2023-08-01T06:18:54;19.80;;;6.47;;
72920;SDS011;61064;51.654;5.476;2023-08-01T06:21:19;18.03;;;7.20;;
72920;SDS011;61064;51.654;5.476;2023-08-01T06:23:45;20.60;;;6.88;;
72920;SDS011;61064;51.654;5.476;2023-08-01T06:26:10;19.80;;;6.53;;
72920;SDS011;61064;51.654;5.476;2023-08-01T06:28:35;15.20;;;5.83;;
72920;SDS011;61064;51.654;5.476;2023-08-01T06:31:01;17.93;;;6.53;;
72920;SDS011;61064;51.654;5.476;2023-08-01T06:33:27;17.40;;;6.03;;
72920;SDS011;61064;51.654;5.476;2023-08-01T06:35:52;17.27;;;6.00;;
72920;SDS011;61064;51.654;5.476;2023-08-01T06:38:18;16.47;;;5.97;;
72920;SDS011;61064;51.654;5.476;2023-08-01T06:40:43;16.17;;;5.37;;
72920;SDS011;61064;51.654;5.476;2023-08-01T06:43:08;15.87;;;5.50;;
72920;SDS011;61064;51.654;5.476;2023-08-01T06:45:34;16.07;;;5.00;;
72920;SDS011;61064;51.654;5.476;2023-08-01T06:47:59;14.07;;;5.20;;
72920;SDS011;61064;51.654;5.476;2023-08-01T06:50:25;12.77;;;4.93;;
72920;SDS011;61064;51.654;5.476;2023-08-01T06:52:50;12.05;;;5.00;;
72920;SDS011;61064;51.654;5.476;2023-08-01T06:55:16;13.13;;;4.67;;
72920;SDS011;61064;51.654;5.476;2023-08-01T06:57:41;14.47;;;4.33;;
72920;SDS011;61064;51.654;5.476;2023-08-01T07:00:07;16.57;;;4.77;;
72920;SDS011;61064;51.654;5.476;2023-08-01T07:02:33;11.05;;;3.92;;
72920;SDS011;61064;51.654;5.476;2023-08-01T07:04:58;14.23;;;4.63;;
72920;SDS011;61064;51.654;5.476;2023-08-01T07:07:23;14.93;;;4.55;;
72920;SDS011;61064;51.654;5.476;2023-08-01T07:09:49;11.40;;;4.07;;
72920;SDS011;61064;51.654;5.476;2023-08-01T07:12:14;14.23;;;4.30;;
72920;SDS011;61064;51.654;5.476;2023-08-01T07:14:39;14.00;;;4.33;;
72920;SDS011;61064;51.654;5.476;2023-08-01T07:17:05;12.77;;;3.93;;
72920;SDS011;61064;51.654;5.476;2023-08-01T07:19:30;11.90;;;3.60;;
72920;SDS011;61064;51.654;5.476;2023-08-01T07:21:55;13.00;;;4.20;;
72920;SDS011;61064;51.654;5.476;2023-08-01T07:24:21;14.80;;;4.30;;
72920;SDS011;61064;51.654;5.476;2023-08-01T07:26:46;15.40;;;4.60;;
72920;SDS011;61064;51.654;5.476;2023-08-01T07:29:12;11.40;;;3.90;;
72920;SDS011;61064;51.654;5.476;2023-08-01T07:31:40;10.32;;;3.50;;
72920;SDS011;61064;51.654;5.476;2023-08-01T07:34:06;12.70;;;3.27;;
72920;SDS011;61064;51.654;5.476;2023-08-01T07:36:31;11.97;;;3.83;;
72920;SDS011;61064;51.654;5.476;2023-08-01T07:38:57;10.83;;;3.73;;
72920;SDS011;61064;51.654;5.476;2023-08-01T07:41:22;13.27;;;3.23;;
72920;SDS011;61064;51.654;5.476;2023-08-01T07:43:48;11.97;;;3.60;;
72920;SDS011;61064;51.654;5.476;2023-08-01T07:46:14;14.15;;;3.85;;
72920;SDS011;61064;51.654;5.476;2023-08-01T07:48:39;12.68;;;3.92;;
72920;SDS011;61064;51.654;5.476;2023-08-01T07:51:05;10.33;;;3.30;;
72920;SDS011;61064;51.654;5.476;2023-08-01T07:53:34;12.00;;;3.85;;
72920;SDS011;61064;51.654;5.476;2023-08-01T07:56:00;13.07;;;3.17;;
72920;SDS011;61064;51.654;5.476;2023-08-01T07:58:27;14.05;;;3.70;;
72920;SDS011;61064;51.654;5.476;2023-08-01T08:00:53;11.23;;;3.10;;
72920;SDS011;61064;51.654;5.476;2023-08-01T08:03:18;10.88;;;3.00;;
72920;SDS011;61064;51.654;5.476;2023-08-01T08:05:47;10.95;;;3.03;;
72920;SDS011;61064;51.654;5.476;2023-08-01T08:08:13;9.93;;;3.00;;
72920;SDS011;61064;51.654;5.476;2023-08-01T08:10:38;11.40;;;3.23;;
72920;SDS011;61064;51.654;5.476;2023-08-01T08:13:03;12.50;;;2.90;;
72920;SDS011;61064;51.654;5.476;2023-08-01T08:15:29;10.33;;;2.93;;
72920;SDS011;61064;51.654;5.476;2023-08-01T08:17:58;13.13;;;3.58;;
72920;SDS011;61064;51.654;5.476;2023-08-01T08:20:24;9.53;;;3.00;;
72920;SDS011;61064;51.654;5.476;2023-08-01T08:22:49;11.53;;;2.83;;
72920;SDS011;61064;51.654;5.476;2023-08-01T08:25:14;8.97;;;3.00;;
72920;SDS011;61064;51.654;5.476;2023-08-01T08:27:40;9.43;;;2.80;;
72920;SDS011;61064;51.654;5.476;2023-08-01T08:30:06;9.23;;;2.57;;
72920;SDS011;61064;51.654;5.476;2023-08-01T08:32:31;9.32;;;2.80;;
72920;SDS011;61064;51.654;5.476;2023-08-01T08:34:57;10.90;;;2.67;;
72920;SDS011;61064;51.654;5.476;2023-08-01T08:37:22;11.90;;;2.70;;
72920;SDS011;61064;51.654;5.476;2023-08-01T08:39:47;9.60;;;2.50;;
72920;SDS011;61064;51.654;5.476;2023-08-01T08:42:13;12.87;;;2.80;;
72920;SDS011;61064;51.654;5.476;2023-08-01T08:44:42;11.68;;;2.95;;
72920;SDS011;61064;51.654;5.476;2023-08-01T08:47:08;9.82;;;2.63;;
72920;SDS011;61064;51.654;5.476;2023-08-01T08:49:37;10.83;;;2.60;;
72920;SDS011;61064;51.654;5.476;2023-08-01T08:52:03;11.02;;;2.72;;
72920;SDS011;61064;51.654;5.476;2023-08-01T08:54:29;8.38;;;2.63;;
72920;SDS011;61064;51.654;5.476;2023-08-01T08:56:56;9.25;;;2.42;;
72920;SDS011;61064;51.654;5.476;2023-08-01T08:59:23;10.15;;;2.55;;
72920;SDS011;61064;51.654;5.476;2023-08-01T09:01:50;10.93;;;2.43;;
72920;SDS011;61064;51.654;5.476;2023-08-01T09:04:15;8.57;;;2.42;;
72920;SDS011;61064;51.654;5.476;2023-08-01T09:06:44;10.57;;;1.97;;
72920;SDS011;61064;51.654;5.476;2023-08-01T09:09:11;8.82;;;2.33;;
72920;SDS011;61064;51.654;5.476;2023-08-01T09:11:39;10.27;;;2.50;;
72920;SDS011;61064;51.654;5.476;2023-08-01T09:14:07;11.27;;;2.40;;
72920;SDS011;61064;51.654;5.476;2023-08-01T09:16:33;11.93;;;2.73;;
72920;SDS011;61064;51.654;5.476;2023-08-01T09:18:58;8.13;;;2.10;;
72920;SDS011;61064;51.654;5.476;2023-08-01T09:21:24;11.10;;;2.23;;
72920;SDS011;61064;51.654;5.476;2023-08-01T09:23:49;11.43;;;2.50;;
72920;SDS011;61064;51.654;5.476;2023-08-01T09:26:17;10.13;;;2.20;;
72920;SDS011;61064;51.654;5.476;2023-08-01T09:28:43;11.93;;;2.00;;
72920;SDS011;61064;51.654;5.476;2023-08-01T09:31:10;10.57;;;2.20;;
72920;SDS011;61064;51.654;5.476;2023-08-01T09:33:39;11.17;;;2.70;;
72920;SDS011;61064;51.654;5.476;2023-08-01T09:36:06;12.13;;;3.00;;
72920;SDS011;61064;51.654;5.476;2023-08-01T09:38:36;11.73;;;2.50;;
72920;SDS011;61064;51.654;5.476;2023-08-01T09:41:03;8.55;;;2.20;;
72920;SDS011;61064;51.654;5.476;2023-08-01T09:43:36;11.30;;;2.25;;
72920;SDS011;61064;51.654;5.476;2023-08-01T09:46:02;12.20;;;2.53;;
72920;SDS011;61064;51.654;5.476;2023-08-01T09:48:31;10.38;;;2.40;;
72920;SDS011;61064;51.654;5.476;2023-08-01T09:51:30;11.17;;;2.10;;
72920;SDS011;61064;51.654;5.476;2023-08-01T09:53:52;9.85;;;2.25;;
72920;SDS011;61064;51.654;5.476;2023-08-01T09:56:25;7.63;;;2.00;;
72920;SDS011;61064;51.654;5.476;2023-08-01T09:58:54;9.40;;;1.30;;
72920;SDS011;61064;51.654;5.476;2023-08-01T10:01:21;5.40;;;1.50;;
72920;SDS011;61064;51.654;5.476;2023-08-01T10:03:48;10.63;;;1.20;;
72920;SDS011;61064;51.654;5.476;2023-08-01T10:06:19;8.18;;;1.60;;
72920;SDS011;61064;51.654;5.476;2023-08-01T10:08:47;7.65;;;1.42;;
72920;SDS011;61064;51.654;5.476;2023-08-01T10:11:17;8.23;;;1.50;;
72920;SDS011;61064;51.654;5.476;2023-08-01T10:13:44;6.95;;;1.20;;
72920;SDS011;61064;51.654;5.476;2023-08-01T10:16:10;8.47;;;1.77;;
72920;SDS011;61064;51.654;5.476;2023-08-01T10:18:38;10.38;;;1.80;;
72920;SDS011;61064;51.654;5.476;2023-08-01T10:21:07;10.30;;;1.65;;
72920;SDS011;61064;51.654;5.476;2023-08-01T10:23:36;9.38;;;1.38;;
72920;SDS011;61064;51.654;5.476;2023-08-01T10:26:03;9.43;;;1.60;;
72920;SDS011;61064;51.654;5.476;2023-08-01T10:28:34;7.30;;;1.70;;
72920;SDS011;61064;51.654;5.476;2023-08-01T10:31:07;9.38;;;1.50;;
72920;SDS011;61064;51.654;5.476;2023-08-01T10:33:38;10.25;;;1.70;;
72920;SDS011;61064;51.654;5.476;2023-08-01T10:36:15;11.32;;;1.65;;
72920;SDS011;61064;51.654;5.476;2023-08-01T10:45:19;9.27;;;2.17;;
72920;SDS011;61064;51.654;5.476;2023-08-01T10:47:47;9.30;;;2.03;;
72920;SDS011;61064;51.654;5.476;2023-08-01T10:50:31;8.85;;;2.10;;
72920;SDS011;61064;51.654;5.476;2023-08-01T10:53:03;9.33;;;2.10;;
72920;SDS011;61064;51.654;5.476;2023-08-01T10:55:44;10.48;;;2.22;;
72920;SDS011;61064;51.654;5.476;2023-08-01T10:58:11;7.75;;;1.90;;
72920;SDS011;61064;51.654;5.476;2023-08-01T11:00:57;12.10;;;1.95;;
72920;SDS011;61064;51.654;5.476;2023-08-01T11:03:33;9.30;;;2.30;;
72920;SDS011;61064;51.654;5.476;2023-08-01T11:06:11;15.18;;;2.50;;
72920;SDS011;61064;51.654;5.476;2023-08-01T11:08:40;11.70;;;2.20;;
72920;SDS011;61064;51.654;5.476;2023-08-01T11:11:08;8.85;;;2.13;;
72920;SDS011;61064;51.654;5.476;2023-08-01T11:13:39;7.65;;;1.88;;
72920;SDS011;61064;51.654;5.476;2023-08-01T11:16:07;11.93;;;2.10;;
72920;SDS011;61064;51.654;5.476;2023-08-01T11:18:40;8.10;;;1.60;;
72920;SDS011;61064;51.654;5.476;2023-08-01T11:21:09;9.02;;;1.40;;
72920;SDS011;61064;51.654;5.476;2023-08-01T11:23:35;9.52;;;1.67;;
72920;SDS011;61064;51.654;5.476;2023-08-01T11:26:10;8.70;;;1.57;;
72920;SDS011;61064;51.654;5.476;2023-08-01T11:28:36;8.10;;;1.40;;
72920;SDS011;61064;51.654;5.476;2023-08-01T11:31:10;7.97;;;1.30;;
72920;SDS011;61064;51.654;5.476;2023-08-01T11:33:36;8.35;;;1.30;;
72920;SDS011;61064;51.654;5.476;2023-08-01T11:36:02;8.30;;;1.20;;
72920;SDS011;61064;51.654;5.476;2023-08-01T11:38:29;11.27;;;1.98;;
72920;SDS011;61064;51.654;5.476;2023-08-01T11:40:56;8.98;;;1.40;;
72920;SDS011;61064;51.654;5.476;2023-08-01T11:43:23;7.67;;;1.20;;
72920;SDS011;61064;51.654;5.476;2023-08-01T11:45:52;7.35;;;1.40;;
72920;SDS011;61064;51.654;5.476;2023-08-01T11:48:21;6.97;;;1.15;;
72920;SDS011;61064;51.654;5.476;2023-08-01T11:51:00;7.00;;;1.17;;
72920;SDS011;61064;51.654;5.476;2023-08-01T11:53:31;7.85;;;1.30;;
72920;SDS011;61064;51.654;5.476;2023-08-01T11:56:03;8.52;;;1.50;;
72920;SDS011;61064;51.654;5.476;2023-08-01T11:58:33;8.85;;;1.30;;
72920;SDS011;61064;51.654;5.476;2023-08-01T12:01:06;7.57;;;1.35;;
72920;SDS011;61064;51.654;5.476;2023-08-01T12:03:44;8.47;;;1.20;;
72920;SDS011;61064;51.654;5.476;2023-08-01T12:06:24;8.88;;;1.50;;
72920;SDS011;61064;51.654;5.476;2023-08-01T12:09:04;8.38;;;1.60;;
72920;SDS011;61064;51.654;5.476;2023-08-01T12:11:43;8.70;;;1.42;;
72920;SDS011;61064;51.654;5.476;2023-08-01T12:14:12;7.32;;;1.20;;
72920;SDS011;61064;51.654;5.476;2023-08-01T12:16:44;9.93;;;1.80;;
72920;SDS011;61064;51.654;5.476;2023-08-01T12:19:16;6.63;;;1.48;;
72920;SDS011;61064;51.654;5.476;2023-08-01T12:21:46;9.18;;;1.45;;
72920;SDS011;61064;51.654;5.476;2023-08-01T12:24:18;9.15;;;1.30;;
72920;SDS011;61064;51.654;5.476;2023-08-01T12:26:44;8.32;;;1.60;;
72920;SDS011;61064;51.654;5.476;2023-08-01T12:29:16;9.87;;;1.23;;
72920;SDS011;61064;51.654;5.476;2023-08-01T12:31:55;10.10;;;1.40;;
72920;SDS011;61064;51.654;5.476;2023-08-01T12:34:26;7.78;;;1.50;;
72920;SDS011;61064;51.654;5.476;2023-08-01T12:37:00;9.73;;;1.70;;
72920;SDS011;61064;51.654;5.476;2023-08-01T12:39:29;11.88;;;1.70;;
72920;SDS011;61064;51.654;5.476;2023-08-01T12:42:29;8.30;;;1.27;;
72920;SDS011;61064;51.654;5.476;2023-08-01T12:45:05;7.30;;;1.42;;
72920;SDS011;61064;51.654;5.476;2023-08-01T12:47:31;9.95;;;1.63;;
72920;SDS011;61064;51.654;5.476;2023-08-01T12:49:57;8.55;;;1.58;;
72920;SDS011;61064;51.654;5.476;2023-08-01T12:52:26;8.60;;;1.33;;
72920;SDS011;61064;51.654;5.476;2023-08-01T12:54:52;8.52;;;1.35;;
72920;SDS011;61064;51.654;5.476;2023-08-01T12:57:20;7.43;;;1.50;;
72920;SDS011;61064;51.654;5.476;2023-08-01T12:59:49;9.45;;;1.48;;
72920;SDS011;61064;51.654;5.476;2023-08-01T13:02:14;8.40;;;1.47;;
72920;SDS011;61064;51.654;5.476;2023-08-01T13:04:40;7.65;;;1.40;;
72920;SDS011;61064;51.654;5.476;2023-08-01T13:07:05;5.90;;;1.00;;
72920;SDS011;61064;51.654;5.476;2023-08-01T13:09:31;7.43;;;1.33;;
72920;SDS011;61064;51.654;5.476;2023-08-01T13:11:57;6.32;;;1.35;;
72920;SDS011;61064;51.654;5.476;2023-08-01T13:14:24;7.40;;;1.30;;
72920;SDS011;61064;51.654;5.476;2023-08-01T13:16:50;7.93;;;1.33;;
72920;SDS011;61064;51.654;5.476;2023-08-01T13:19:16;8.83;;;1.33;;
72920;SDS011;61064;51.654;5.476;2023-08-01T13:21:41;8.90;;;1.40;;
72920;SDS011;61064;51.654;5.476;2023-08-01T13:24:06;8.90;;;1.30;;
72920;SDS011;61064;51.654;5.476;2023-08-01T13:26:32;6.93;;;1.07;;
72920;SDS011;61064;51.654;5.476;2023-08-01T13:28:58;11.10;;;1.60;;
72920;SDS011;61064;51.654;5.476;2023-08-01T13:31:25;10.20;;;1.40;;
72920;SDS011;61064;51.654;5.476;2023-08-01T13:33:51;6.50;;;1.00;;
72920;SDS011;61064;51.654;5.476;2023-08-01T13:36:19;6.05;;;0.93;;
72920;SDS011;61064;51.654;5.476;2023-08-01T13:38:45;6.80;;;1.00;;
72920;SDS011;61064;51.654;5.476;2023-08-01T13:41:11;7.28;;;1.13;;
72920;SDS011;61064;51.654;5.476;2023-08-01T13:43:36;8.23;;;1.23;;
72920;SDS011;61064;51.654;5.476;2023-08-01T13:46:17;5.93;;;1.20;;
72920;SDS011;61064;51.654;5.476;2023-08-01T13:48:44;6.65;;;1.20;;
72920;SDS011;61064;51.654;5.476;2023-08-01T13:51:11;6.18;;;1.30;;
72920;SDS011;61064;51.654;5.476;2023-08-01T13:53:37;7.82;;;1.20;;
72920;SDS011;61064;51.654;5.476;2023-08-01T13:56:09;7.33;;;1.30;;
72920;SDS011;61064;51.654;5.476;2023-08-01T13:58:35;6.82;;;1.00;;
72920;SDS011;61064;51.654;5.476;2023-08-01T14:01:02;8.05;;;1.02;;
72920;SDS011;61064;51.654;5.476;2023-08-01T14:03:29;6.20;;;1.00;;
72920;SDS011;61064;51.654;5.476;2023-08-01T14:05:55;9.52;;;1.30;;
72920;SDS011;61064;51.654;5.476;2023-08-01T14:08:21;8.10;;;1.20;;
72920;SDS011;61064;51.654;5.476;2023-08-01T14:10:46;7.07;;;1.17;;
72920;SDS011;61064;51.654;5.476;2023-08-01T14:13:12;6.67;;;1.30;;
72920;SDS011;61064;51.654;5.476;2023-08-01T14:15:37;8.93;;;1.30;;
72920;SDS011;61064;51.654;5.476;2023-08-01T14:18:02;8.90;;;1.47;;
72920;SDS011;61064;51.654;5.476;2023-08-01T14:20:28;5.97;;;1.10;;
72920;SDS011;61064;51.654;5.476;2023-08-01T14:22:53;7.75;;;1.38;;
72920;SDS011;61064;51.654;5.476;2023-08-01T14:25:18;8.23;;;1.10;;
72920;SDS011;61064;51.654;5.476;2023-08-01T14:27:44;5.77;;;0.87;;
72920;SDS011;61064;51.654;5.476;2023-08-01T14:30:10;9.35;;;1.63;;
72920;SDS011;61064;51.654;5.476;2023-08-01T14:32:37;7.43;;;1.30;;
72920;SDS011;61064;51.654;5.476;2023-08-01T14:35:03;9.47;;;1.33;;
72920;SDS011;61064;51.654;5.476;2023-08-01T14:37:29;6.10;;;0.82;;
72920;SDS011;61064;51.654;5.476;2023-08-01T14:39:54;7.37;;;1.10;;
72920;SDS011;61064;51.654;5.476;2023-08-01T14:42:20;7.97;;;1.10;;
72920;SDS011;61064;51.654;5.476;2023-08-01T14:44:50;4.93;;;1.10;;